Time;durP1;ratioP1;P1;durP2;ratioP2;P2;SDS_P1;SDS_P2;PMS_P1;PMS_P2;Temp;Humidity;BMP_temperature;BMP_pressure;BME280_temperature;BME280_humidity;BME280_pressure;Samples;Min_cycle;Max_cycle;Signal;HPM_P1;HPM_P2
2021/03/16 00:02:58;;;;;;;3.47;1.55;;;;;;;4.24;69.27;97139.66;10237181;29;20075;-81
2021/03/16 00:08:22;;;;;;;4.13;1.80;;;;;;;4.05;69.66;97142.22;10210771;29;20054;-81
2021/03/16 00:13:42;;;;;;;2.97;1.25;;;;;;;4.07;69.69;97139.63;10209708;29;20055;-81
2021/03/16 00:19:02;;;;;;;2.63;1.15;;;;;;;4.03;69.88;97139.28;10235193;29;20123;-81
2021/03/16 00:24:22;;;;;;;3.17;1.13;;;;;;;4.09;69.85;97142.56;10208227;29;20101;-82
2021/03/16 00:29:41;;;;;;;2.05;0.95;;;;;;;4.11;69.74;97145.47;10206795;29;20129;-81
2021/03/16 00:35:01;;;;;;;3.22;1.50;;;;;;;3.96;70.03;97143.59;10207127;29;20048;-82
2021/03/16 00:40:21;;;;;;;3.00;1.42;;;;;;;3.85;69.76;97138.50;10218960;29;20044;-81
2021/03/16 00:45:41;;;;;;;2.85;1.20;;;;;;;3.72;70.39;97142.28;10205387;29;20052;-81
2021/03/16 00:51:01;;;;;;;4.68;1.17;;;;;;;3.60;70.41;97143.31;10204405;29;20079;-81
2021/03/16 00:56:23;;;;;;;1.90;0.85;;;;;;;3.47;70.83;97149.81;10204447;29;20051;-81
2021/03/16 01:01:43;;;;;;;2.25;1.20;;;;;;;3.41;70.74;97158.31;10216348;29;20056;-81
2021/03/16 01:07:03;;;;;;;3.85;1.60;;;;;;;3.52;70.42;97154.38;10230194;29;20586;-81
2021/03/16 01:12:23;;;;;;;2.33;1.40;;;;;;;3.48;70.59;97153.31;10218433;29;20054;-82
2021/03/16 01:17:43;;;;;;;2.05;1.23;;;;;;;3.47;70.21;97163.59;10205430;29;20107;-82
2021/03/16 01:23:04;;;;;;;2.42;1.40;;;;;;;3.49;70.16;97158.28;10204600;29;20048;-81
2021/03/16 01:28:24;;;;;;;2.10;1.45;;;;;;;3.59;70.00;97161.16;10216265;29;20487;-82
2021/03/16 01:33:44;;;;;;;2.35;1.20;;;;;;;3.58;69.73;97160.44;10217872;29;20099;-81
2021/03/16 01:39:04;;;;;;;1.98;1.42;;;;;;;3.63;69.44;97167.75;10231431;29;20051;-81
2021/03/16 01:44:24;;;;;;;1.98;1.02;;;;;;;3.66;69.02;97163.13;10205462;29;20075;-81
2021/03/16 01:49:44;;;;;;;1.77;1.00;;;;;;;3.64;69.48;97169.19;10205039;29;20043;-81
2021/03/16 01:55:04;;;;;;;2.00;0.90;;;;;;;3.52;68.99;97179.22;10204726;29;20052;-82
2021/03/16 02:00:30;;;;;;;2.45;1.30;;;;;;;3.34;69.03;97166.63;10204216;29;20126;-82
2021/03/16 02:06:13;;;;;;;2.05;1.08;;;;;;;3.39;69.39;97168.44;10218550;29;20094;-81
2021/03/16 02:12:33;;;;;;;2.15;1.23;;;;;;;3.41;69.35;97179.66;10210258;29;20120;-82
2021/03/16 02:18:20;;;;;;;2.70;1.45;;;;;;;3.45;69.45;97177.22;10214443;29;20056;-81
2021/03/16 02:24:05;;;;;;;4.32;1.65;;;;;;;3.46;69.31;97178.69;10221861;29;20484;-82
2021/03/16 02:29:55;;;;;;;2.25;1.38;;;;;;;3.55;69.06;97172.56;10232330;29;20052;-81
2021/03/16 02:35:34;;;;;;;4.18;2.00;;;;;;;3.59;69.01;97183.97;10211399;29;20439;-82
2021/03/16 02:41:15;;;;;;;2.67;1.98;;;;;;;3.61;69.30;97186.91;10222182;29;20055;-82
2021/03/16 02:46:53;;;;;;;2.90;1.90;;;;;;;3.62;69.10;97193.16;10222663;29;20052;-82
2021/03/16 02:52:32;;;;;;;4.28;1.70;;;;;;;3.69;69.11;97200.66;10216453;29;20048;-81
2021/03/16 02:58:11;;;;;;;2.35;1.20;;;;;;;3.68;69.31;97201.97;10241039;29;20048;-81
2021/03/16 03:03:50;;;;;;;1.40;0.90;;;;;;;3.58;69.20;97204.59;10241032;29;20082;-82
2021/03/16 03:09:29;;;;;;;2.22;0.88;;;;;;;3.52;69.36;97215.09;10220786;29;20043;-81
2021/03/16 03:15:10;;;;;;;2.08;0.90;;;;;;;3.49;69.21;97219.00;10208340;29;20063;-82
2021/03/16 03:20:48;;;;;;;1.75;0.70;;;;;;;3.51;69.39;97227.44;10197353;29;20040;-81
2021/03/16 03:26:44;;;;;;;1.35;0.80;;;;;;;3.46;69.89;97236.63;10193517;29;20056;-82
2021/03/16 03:32:24;;;;;;;3.00;0.60;;;;;;;3.41;70.00;97243.13;10192868;29;20419;-82
2021/03/16 03:38:03;;;;;;;0.95;0.50;;;;;;;3.47;69.74;97238.09;10179507;29;20068;-82
2021/03/16 03:43:42;;;;;;;1.67;0.30;;;;;;;3.49;69.72;97249.34;10191805;29;20484;-82
2021/03/16 03:49:20;;;;;;;1.10;0.40;;;;;;;3.50;70.08;97255.59;10177854;29;20044;-81
2021/03/16 03:54:59;;;;;;;1.27;0.40;;;;;;;3.54;69.48;97258.69;10188511;29;20079;-82
2021/03/16 04:00:38;;;;;;;1.65;0.30;;;;;;;3.54;69.79;97264.94;10187963;29;20107;-81
2021/03/16 04:06:17;;;;;;;0.90;0.30;;;;;;;3.54;69.69;97270.47;10185362;29;20071;-82
2021/03/16 04:11:56;;;;;;;2.40;0.35;;;;;;;3.47;69.78;97276.00;10189772;29;20048;-82
2021/03/16 04:17:35;;;;;;;0.98;0.25;;;;;;;3.48;69.79;97280.25;10193164;29;20119;-82
2021/03/16 04:23:14;;;;;;;2.20;0.50;;;;;;;3.41;69.62;97287.25;10185496;29;20060;-83
2021/03/16 04:28:52;;;;;;;2.00;0.40;;;;;;;3.34;70.11;97291.50;10182236;29;20072;-81
2021/03/16 04:34:31;;;;;;;1.60;0.50;;;;;;;3.25;69.43;97291.34;10194569;29;20119;-82
2021/03/16 04:40:11;;;;;;;3.03;0.45;;;;;;;3.29;70.11;97295.22;10193852;29;20048;-82
2021/03/16 04:45:50;;;;;;;0.90;0.30;;;;;;;3.36;69.95;97304.75;10192570;29;20052;-80
2021/03/16 04:51:29;;;;;;;1.77;0.35;;;;;;;3.42;69.93;97308.78;10192897;29;20044;-82
2021/03/16 04:57:08;;;;;;;1.88;0.50;;;;;;;3.48;69.68;97322.38;10182188;29;20107;-82
2021/03/16 05:02:47;;;;;;;3.33;0.60;;;;;;;3.49;70.07;97318.31;10190642;29;20072;-82
2021/03/16 05:08:26;;;;;;;1.23;0.50;;;;;;;3.41;69.97;97323.88;10188558;29;20040;-81
2021/03/16 05:14:05;;;;;;;1.45;0.55;;;;;;;3.42;70.13;97333.59;10191301;29;20492;-81
2021/03/16 05:19:43;;;;;;;1.27;0.63;;;;;;;3.48;70.19;97336.19;10190014;29;20044;-84
2021/03/16 05:25:22;;;;;;;0.90;0.50;;;;;;;3.58;70.14;97350.88;10189167;29;20542;-82
2021/03/16 05:31:01;;;;;;;0.95;0.50;;;;;;;3.61;70.15;97362.81;10200557;29;20043;-81
2021/03/16 05:36:40;;;;;;;1.25;0.50;;;;;;;3.61;70.27;97360.78;10208258;29;20044;-81
2021/03/16 05:42:19;;;;;;;1.90;0.40;;;;;;;3.61;69.92;97355.25;10166920;29;20044;-81
2021/03/16 05:47:57;;;;;;;1.80;0.52;;;;;;;3.69;69.62;97358.00;10185613;29;20050;-80
2021/03/16 05:53:36;;;;;;;1.15;0.50;;;;;;;3.69;69.34;97369.03;10212510;29;20055;-81
2021/03/16 05:59:15;;;;;;;1.45;0.50;;;;;;;3.64;68.76;97384.50;10213057;29;20138;-81
2021/03/16 06:04:54;;;;;;;1.13;0.60;;;;;;;3.66;68.86;97387.44;10204047;29;20070;-80
2021/03/16 06:10:32;;;;;;;1.30;0.50;;;;;;;3.81;68.82;97396.97;10221517;29;20067;-82
2021/03/16 06:16:15;;;;;;;1.40;0.75;;;;;;;3.87;68.21;97397.50;10226034;29;20455;-81
2021/03/16 06:22:04;;;;;;;0.88;0.50;;;;;;;3.88;68.10;97407.25;10225310;29;20058;-81
2021/03/16 06:27:44;;;;;;;1.33;0.68;;;;;;;3.96;68.26;97416.25;10210388;29;20051;-81
2021/03/16 06:33:26;;;;;;;2.40;0.90;;;;;;;4.08;67.69;97422.09;10234758;29;20048;-80
2021/03/16 06:39:05;;;;;;;2.53;0.70;;;;;;;4.18;68.17;97431.25;10205465;29;20538;-81
2021/03/16 06:44:44;;;;;;;2.25;0.60;;;;;;;4.30;68.15;97448.88;10226365;29;20487;-81
2021/03/16 06:50:30;;;;;;;1.70;0.73;;;;;;;4.31;68.29;97467.66;10226838;29;20048;-80
2021/03/16 06:56:08;;;;;;;2.35;0.73;;;;;;;4.26;67.85;97479.66;10215276;29;20047;-80
2021/03/16 07:01:49;;;;;;;2.88;0.73;;;;;;;4.26;67.49;97490.72;10227959;29;20035;-80
2021/03/16 07:07:28;;;;;;;3.13;0.98;;;;;;;4.13;67.32;97496.47;10227961;29;20048;-81
2021/03/16 07:13:07;;;;;;;2.45;0.90;;;;;;;4.15;67.61;97513.25;10227707;29;20133;-80
2021/03/16 07:18:46;;;;;;;3.60;1.40;;;;;;;4.16;68.13;97517.47;10227912;29;20040;-81
2021/03/16 07:24:28;;;;;;;2.95;1.20;;;;;;;4.34;67.77;97517.56;10227814;29;20044;-80
2021/03/16 07:30:07;;;;;;;4.10;1.10;;;;;;;4.50;67.49;97535.56;10204113;29;20059;-80
2021/03/16 07:35:47;;;;;;;3.10;1.25;;;;;;;4.44;67.17;97535.03;10203870;29;20048;-81
2021/03/16 07:41:25;;;;;;;1.77;0.80;;;;;;;4.48;66.92;97554.75;10224222;29;20048;-80
2021/03/16 07:47:04;;;;;;;2.25;0.70;;;;;;;4.77;66.17;97542.09;10201795;29;20048;-80
2021/03/16 07:52:45;;;;;;;2.67;0.90;;;;;;;6.77;65.89;97564.78;10202794;29;20074;-80
2021/03/16 07:58:25;;;;;;;4.65;0.85;;;;;;;7.61;64.31;97569.16;10226341;29;20562;-80
2021/03/16 08:04:08;;;;;;;1.27;0.60;;;;;;;7.53;63.06;97578.91;10208045;29;20451;-81
2021/03/16 08:09:48;;;;;;;3.17;0.77;;;;;;;7.71;63.08;97581.03;10228462;29;20050;-81
2021/03/16 08:15:27;;;;;;;3.17;1.13;;;;;;;8.28;61.21;97596.41;10181613;29;20050;-80
2021/03/16 08:21:14;;;;;;;2.15;0.93;;;;;;;13.51;64.93;97608.72;10181636;29;20040;-80
2021/03/16 08:26:54;;;;;;;1.98;0.50;;;;;;;19.16;51.60;97606.91;10218133;29;20055;-80
2021/03/16 08:32:34;;;;;;;1.48;0.57;;;;;;;20.50;49.91;97610.13;10216518;29;20630;-81
2021/03/16 08:38:29;;;;;;;2.42;0.40;;;;;;;30.56;33.49;97622.66;10204349;29;20376;-81
2021/03/16 08:44:08;;;;;;;1.58;0.40;;;;;;;22.04;30.85;97632.91;10204081;29;20067;-80
2021/03/16 08:49:48;;;;;;;2.13;0.68;;;;;;;15.60;32.39;97644.50;10211131;29;20076;-81
2021/03/16 08:55:32;;;;;;;2.75;0.95;;;;;;;11.58;35.76;97652.19;10210952;29;20048;-82
2021/03/16 09:01:12;;;;;;;3.50;0.88;;;;;;;9.36;37.94;97634.78;10220692;29;20040;-82
2021/03/16 09:06:53;;;;;;;3.53;0.93;;;;;;;10.45;38.80;97649.19;10227739;29;20047;-80
2021/03/16 09:12:32;;;;;;;2.58;0.70;;;;;;;11.05;38.05;97657.25;10189785;29;20043;-81
2021/03/16 09:18:12;;;;;;;3.45;1.42;;;;;;;10.84;37.59;97641.25;10216589;29;20075;-81
2021/03/16 09:23:52;;;;;;;7.47;0.80;;;;;;;9.85;37.85;97656.94;10226967;29;20055;-81
2021/03/16 09:29:35;;;;;;;3.33;0.60;;;;;;;8.89;38.64;97659.31;10228482;29;20059;-81
2021/03/16 09:35:18;;;;;;;3.57;0.50;;;;;;;7.99;39.24;97665.09;10194478;29;20039;-81
2021/03/16 09:40:56;;;;;;;2.30;0.60;;;;;;;7.46;41.59;97661.78;10202063;29;20048;-81
2021/03/16 09:46:29;;;;;;;6.18;0.88;;;;;;;7.13;41.39;97669.59;10197721;29;20043;-81
2021/03/16 09:51:49;;;;;;;4.80;0.63;;;;;;;7.12;41.41;97670.19;10206730;29;20054;-81
2021/03/16 09:57:14;;;;;;;3.88;0.95;;;;;;;7.23;42.27;97669.66;10212102;29;20048;-81
2021/03/16 10:02:36;;;;;;;3.45;1.10;;;;;;;7.45;42.55;97663.09;10223449;29;20047;-81
2021/03/16 10:07:56;;;;;;;3.25;1.27;;;;;;;7.73;41.98;97663.84;10216920;29;20048;-81
2021/03/16 10:18:50;;;;;;;3.00;1.30;;;;;;;9.09;42.02;97650.94;10107707;29;20057;-80
2021/03/16 10:24:12;;;;;;;2.92;1.17;;;;;;;10.47;40.56;97651.38;10126312;29;20045;-81
2021/03/16 10:29:36;;;;;;;2.22;1.02;;;;;;;14.21;39.41;97656.63;10133796;29;20117;-80
2021/03/16 10:34:56;;;;;;;4.65;1.48;;;;;;;15.94;35.06;97665.06;10121442;29;20045;-80
2021/03/16 10:40:16;;;;;;;4.43;1.20;;;;;;;17.81;32.97;97668.59;10117658;29;20045;-79
2021/03/16 10:45:30;;;;;;;2.30;1.00;;;;;;;15.92;32.48;97675.47;10076913;29;20061;-78
2021/03/16 10:50:50;;;;;;;2.50;0.80;;;;;;;13.07;33.89;97683.38;10064408;29;20061;-77
2021/03/16 10:56:10;;;;;;;3.83;1.00;;;;;;;10.94;35.79;97688.66;10062780;29;20041;-78
2021/03/16 11:01:29;;;;;;;3.53;1.40;;;;;;;9.51;38.04;97672.00;10047491;29;20054;-80
2021/03/16 11:06:51;;;;;;;3.50;1.10;;;;;;;8.85;38.65;97697.97;10046084;29;20080;-80
2021/03/16 11:12:11;;;;;;;3.78;1.15;;;;;;;8.32;38.64;97698.88;10060643;29;20049;-81
2021/03/16 11:17:31;;;;;;;3.30;0.98;;;;;;;8.11;39.59;97704.97;10324611;23;20151;-81
2021/03/16 11:22:51;;;;;;;3.25;0.80;;;;;;;7.79;40.22;97705.22;10112405;29;20180;-79
2021/03/16 11:28:11;;;;;;;3.05;0.75;;;;;;;7.83;40.18;97713.91;10089017;29;20041;-80
2021/03/16 11:33:31;;;;;;;3.58;0.77;;;;;;;7.84;40.76;97712.59;10090382;29;20124;-80
2021/03/16 11:39:09;;;;;;;3.72;0.95;;;;;;;7.81;40.48;97708.16;10096426;29;20041;-79
2021/03/16 11:44:48;;;;;;;2.67;1.00;;;;;;;8.09;41.17;97710.34;10096657;29;20049;-80
2021/03/16 11:50:27;;;;;;;2.88;0.95;;;;;;;9.38;40.56;97701.78;10086988;29;20404;-81
2021/03/16 11:56:06;;;;;;;2.80;1.00;;;;;;;9.79;39.91;97703.91;10102359;29;20049;-80
2021/03/16 12:01:45;;;;;;;2.72;0.80;;;;;;;9.81;39.63;97718.69;10097822;29;20461;-80
2021/03/16 12:07:26;;;;;;;1.67;0.70;;;;;;;9.45;38.85;97697.34;10122632;29;20045;-80
2021/03/16 12:13:06;;;;;;;3.42;0.80;;;;;;;8.69;39.89;97694.00;10147655;29;20045;-80
2021/03/16 12:18:44;;;;;;;3.65;0.93;;;;;;;8.71;40.51;97699.72;10122820;29;20064;-79
2021/03/16 12:24:23;;;;;;;1.65;0.50;;;;;;;9.67;40.04;97698.94;10122993;29;20065;-80
2021/03/16 12:30:04;;;;;;;3.25;0.60;;;;;;;9.71;39.48;97704.06;10127964;29;20476;-77
2021/03/16 12:35:44;;;;;;;4.05;1.20;;;;;;;10.77;39.08;97705.66;10105685;29;20044;-78
2021/03/16 12:41:23;;;;;;;2.13;0.80;;;;;;;10.87;38.48;97720.28;10109948;29;20493;-78
2021/03/16 12:47:04;;;;;;;1.92;0.80;;;;;;;11.02;38.31;97697.56;10088843;29;20045;-79
2021/03/16 12:52:43;;;;;;;4.30;1.00;;;;;;;10.83;38.46;97714.47;10078696;29;20053;-79
2021/03/16 12:58:21;;;;;;;1.85;0.90;;;;;;;10.59;38.44;97713.56;10077505;29;20405;-76
2021/03/16 13:04:00;;;;;;;4.05;1.35;;;;;;;10.51;38.16;97713.75;10089675;29;20183;-77
2021/03/16 13:09:39;;;;;;;3.58;1.10;;;;;;;10.21;38.21;97714.47;10111916;29;20381;-79
2021/03/16 13:15:17;;;;;;;3.05;0.90;;;;;;;10.01;38.23;97711.75;10106370;29;20103;-78
2021/03/16 13:20:57;;;;;;;1.85;0.90;;;;;;;10.07;38.24;97733.75;10089308;29;20075;-78
2021/03/16 13:26:35;;;;;;;2.40;1.08;;;;;;;9.83;38.78;97727.19;10102588;29;20448;-78
2021/03/16 13:32:14;;;;;;;2.00;1.27;;;;;;;10.08;39.00;97737.28;10112814;29;20048;-78
2021/03/16 13:37:53;;;;;;;5.38;1.38;;;;;;;10.34;38.48;97738.38;10113975;29;20040;-79
2021/03/16 13:43:32;;;;;;;5.05;1.67;;;;;;;10.19;38.42;97745.75;10085804;29;20041;-77
2021/03/16 13:49:10;;;;;;;3.88;1.05;;;;;;;10.33;38.46;97757.19;10100465;29;20045;-77
2021/03/16 13:54:49;;;;;;;12.73;1.42;;;;;;;9.91;38.67;97766.06;10100740;29;20040;-77
2021/03/16 14:00:28;;;;;;;5.90;1.17;;;;;;;9.14;39.49;97766.88;10104408;29;20064;-79
2021/03/16 14:06:06;;;;;;;7.70;1.58;;;;;;;8.77;40.47;97774.56;10114660;29;20412;-79
2021/03/16 14:11:45;;;;;;;6.78;1.48;;;;;;;9.26;40.75;97767.75;10104470;29;20044;-79
2021/03/16 14:17:24;;;;;;;4.90;1.35;;;;;;;9.46;40.29;97777.59;10091534;29;20531;-78
2021/03/16 14:23:03;;;;;;;5.07;1.15;;;;;;;8.48;41.91;97780.03;10101324;29;20041;-77
2021/03/16 14:28:41;;;;;;;3.42;1.02;;;;;;;8.26;42.52;97781.84;10114855;29;20441;-78
2021/03/16 14:34:21;;;;;;;3.63;1.40;;;;;;;8.90;42.15;97788.09;10093473;29;20044;-78
2021/03/16 14:40:00;;;;;;;2.97;1.35;;;;;;;9.18;42.62;97783.88;10112216;29;20104;-78
2021/03/16 14:45:38;;;;;;;3.67;1.52;;;;;;;9.19;42.26;97785.34;10118146;29;20044;-79
2021/03/16 14:51:17;;;;;;;5.00;1.40;;;;;;;8.73;42.51;97790.97;10132535;29;20048;-79
2021/03/16 14:56:56;;;;;;;3.60;1.58;;;;;;;8.38;42.70;97793.19;10149899;29;20456;-80
2021/03/16 15:02:34;;;;;;;4.75;1.33;;;;;;;7.97;43.25;97795.59;10143725;29;20092;-81
2021/03/16 15:08:13;;;;;;;4.28;1.30;;;;;;;7.67;44.10;97788.38;10153160;29;20049;-79
2021/03/16 15:13:52;;;;;;;3.88;1.60;;;;;;;7.50;44.57;97789.13;10132720;29;20048;-79
2021/03/16 15:19:31;;;;;;;5.57;1.38;;;;;;;7.14;44.36;97790.47;10120407;29;20072;-79
2021/03/16 15:25:11;;;;;;;4.55;1.55;;;;;;;7.01;44.53;97793.53;10132954;29;20052;-79
2021/03/16 15:30:49;;;;;;;5.53;1.52;;;;;;;6.90;45.03;97791.25;10115505;29;20496;-79
2021/03/16 15:36:28;;;;;;;4.60;1.98;;;;;;;6.94;45.12;97788.78;10071301;29;20049;-78
2021/03/16 15:42:07;;;;;;;4.00;1.50;;;;;;;6.95;45.39;97789.53;10091739;29;20048;-78
2021/03/16 15:47:46;;;;;;;6.38;1.85;;;;;;;6.88;45.08;97791.09;10081171;29;20403;-78
2021/03/16 15:53:24;;;;;;;4.07;2.00;;;;;;;6.69;45.80;97790.88;10093511;29;20071;-80
2021/03/16 15:59:04;;;;;;;7.82;2.08;;;;;;;6.52;46.26;97799.88;10127893;29;20405;-78
2021/03/16 16:04:42;;;;;;;4.40;1.60;;;;;;;6.36;46.04;97796.47;10117660;29;20040;-79
2021/03/16 16:10:21;;;;;;;4.47;1.63;;;;;;;6.23;46.98;97794.00;10128457;29;20037;-78
2021/03/16 16:15:59;;;;;;;3.95;1.77;;;;;;;6.26;47.15;97792.84;10128224;29;20104;-78
2021/03/16 16:21:38;;;;;;;8.38;1.95;;;;;;;6.25;47.22;97788.59;10127841;29;20048;-79
2021/03/16 16:27:17;;;;;;;4.47;1.60;;;;;;;6.12;47.64;97797.94;10106146;29;20045;-78
2021/03/16 16:32:56;;;;;;;5.85;1.80;;;;;;;6.00;47.66;97803.19;10079606;29;20053;-78
2021/03/16 16:38:35;;;;;;;3.67;1.67;;;;;;;5.89;48.44;97803.59;10076913;29;20045;-78
2021/03/16 16:44:13;;;;;;;7.57;2.83;;;;;;;5.78;48.76;97809.53;10076943;29;20492;-78
2021/03/16 16:49:52;;;;;;;5.05;1.55;;;;;;;5.69;48.61;97805.34;10085733;29;20033;-78
2021/03/16 16:55:30;;;;;;;4.93;1.80;;;;;;;5.63;49.04;97826.22;10095535;29;20037;-81
2021/03/16 17:01:09;;;;;;;4.20;1.83;;;;;;;5.56;49.84;97827.72;11146869;23;20036;-80
2021/03/16 17:06:54;;;;;;;6.40;1.92;;;;;;;5.49;49.96;97822.19;10482012;23;20052;-77
2021/03/16 17:12:33;;;;;;;3.50;1.50;;;;;;;5.42;49.29;97829.97;10169102;29;20048;-79
2021/03/16 17:18:12;;;;;;;6.05;1.70;;;;;;;5.30;51.46;97839.97;10179628;29;20574;-79
2021/03/16 17:23:50;;;;;;;4.25;1.90;;;;;;;5.14;50.34;97844.06;10164786;29;20514;-79
2021/03/16 17:29:29;;;;;;;5.90;1.88;;;;;;;5.02;50.88;97848.50;10126369;29;20060;-80
2021/03/16 17:35:09;;;;;;;6.95;2.05;;;;;;;4.84;53.18;97850.38;10113868;29;20496;-75
2021/03/16 17:40:48;;;;;;;7.97;2.10;;;;;;;4.68;53.37;97852.38;10135095;29;20407;-79
2021/03/16 17:46:27;;;;;;;6.82;2.30;;;;;;;4.59;53.04;97863.97;10147374;29;20048;-82
2021/03/16 17:52:09;;;;;;;4.70;2.28;;;;;;;4.47;53.18;97862.88;10160382;29;20061;-79
2021/03/16 17:57:48;;;;;;;9.35;3.05;;;;;;;4.40;53.12;97863.59;10144737;29;20047;-80
2021/03/16 18:03:26;;;;;;;3.72;2.20;;;;;;;4.38;54.34;97866.91;10141765;29;20056;-79
2021/03/16 18:09:05;;;;;;;8.02;3.75;;;;;;;4.37;54.91;97862.66;10203694;29;20491;-76
2021/03/16 18:14:44;;;;;;;5.10;2.92;;;;;;;4.27;55.08;97862.47;10190889;29;20047;-79
2021/03/16 18:20:26;;;;;;;4.63;2.75;;;;;;;4.14;56.70;97859.84;10299328;23;20063;-84
2021/03/16 18:26:05;;;;;;;7.85;4.50;;;;;;;3.97;56.92;97851.34;10264144;28;20046;-84
2021/03/16 18:31:45;;;;;;;3.60;2.05;;;;;;;3.80;56.35;97857.34;10263170;29;20395;-82
2021/03/16 18:37:24;;;;;;;5.53;3.17;;;;;;;3.59;59.53;97857.44;10227828;29;20130;-76
2021/03/16 18:43:03;;;;;;;4.10;2.30;;;;;;;3.50;57.61;97866.22;10188842;29;20048;-78
2021/03/16 18:48:41;;;;;;;6.60;2.63;;;;;;;3.35;61.80;97849.56;10213348;29;20048;-79
2021/03/16 18:54:20;;;;;;;7.10;3.53;;;;;;;3.37;59.49;97853.25;10187998;29;20455;-80
2021/03/16 18:59:59;;;;;;;5.18;3.25;;;;;;;3.46;58.86;97852.03;10195954;29;20491;-80
2021/03/16 19:05:37;;;;;;;5.60;3.40;;;;;;;3.56;59.14;97857.78;10204767;29;20047;-79
2021/03/16 19:11:16;;;;;;;7.10;3.30;;;;;;;3.59;59.26;97867.75;10216153;29;20039;-79
2021/03/16 19:16:55;;;;;;;6.28;3.70;;;;;;;3.63;59.66;97863.34;10209613;29;20051;-79
2021/03/16 19:22:34;;;;;;;7.65;4.13;;;;;;;3.66;59.55;97867.75;10168670;29;20056;-79
2021/03/16 19:28:12;;;;;;;6.85;4.28;;;;;;;3.70;60.32;97868.16;10172925;29;20043;-80
2021/03/16 19:33:51;;;;;;;6.82;3.70;;;;;;;3.71;59.56;97874.44;10168812;29;20483;-80
2021/03/16 19:39:30;;;;;;;6.93;2.97;;;;;;;3.66;60.11;97865.00;10157883;29;20480;-79
2021/03/16 19:45:09;;;;;;;7.05;2.60;;;;;;;3.66;60.59;97876.03;10159592;29;20072;-79
2021/03/16 19:50:48;;;;;;;3.80;2.85;;;;;;;3.64;60.15;97875.84;10168829;29;20377;-79
2021/03/16 19:56:27;;;;;;;5.43;3.17;;;;;;;3.46;60.59;97874.09;10171375;29;20052;-79
2021/03/16 20:02:05;;;;;;;6.35;3.47;;;;;;;3.39;61.71;97880.34;10182822;29;20048;-79
2021/03/16 20:07:44;;;;;;;4.05;2.50;;;;;;;3.35;61.04;97871.66;10159285;29;20480;-79
2021/03/16 20:13:22;;;;;;;8.43;3.53;;;;;;;3.46;61.37;97890.66;10149393;29;20048;-80
2021/03/16 20:19:03;;;;;;;9.23;4.78;;;;;;;3.54;61.21;97877.66;10541090;23;20088;-83
2021/03/16 20:24:43;;;;;;;5.20;3.47;;;;;;;3.58;61.44;97871.78;10465583;23;20040;-87
2021/03/16 20:30:24;;;;;;;7.60;4.18;;;;;;;3.49;61.82;97875.78;10213177;23;20065;-86
2021/03/16 20:36:04;;;;;;;5.25;3.03;;;;;;;3.33;62.59;97880.47;10098358;29;20037;-86
2021/03/16 20:41:48;;;;;;;6.32;3.15;;;;;;;3.31;62.33;97865.75;10099898;29;20057;-82
2021/03/16 20:47:27;;;;;;;4.82;2.65;;;;;;;3.28;62.92;97864.06;10101476;29;20060;-84
2021/03/16 20:53:09;;;;;;;4.90;2.83;;;;;;;3.17;62.90;97874.13;10044372;29;20094;-75
2021/03/16 20:58:48;;;;;;;4.65;3.00;;;;;;;3.21;62.63;97873.78;10042726;29;20618;-76
2021/03/16 21:04:27;;;;;;;5.03;3.00;;;;;;;3.21;63.62;97878.56;10054094;29;20413;-78
2021/03/16 21:10:08;;;;;;;4.65;2.88;;;;;;;3.14;64.03;97877.97;10039044;29;20049;-79
2021/03/16 21:15:47;;;;;;;4.28;2.78;;;;;;;3.23;63.47;97900.81;10049104;29;20050;-75
2021/03/16 21:21:26;;;;;;;5.47;2.92;;;;;;;3.38;64.55;97929.28;10054519;29;20061;-87
2021/03/16 21:27:06;;;;;;;3.80;2.10;;;;;;;3.21;65.79;97928.97;10070923;29;20071;-86
2021/03/16 21:32:45;;;;;;;3.22;2.00;;;;;;;2.91;65.62;97923.94;10734290;23;20065;-79
2021/03/16 21:38:23;;;;;;;5.90;4.18;;;;;;;2.88;64.77;97911.22;10139247;29;20053;-86
2021/03/16 21:44:02;;;;;;;3.08;2.08;;;;;;;2.90;65.34;97911.44;10114468;29;20048;-79
2021/03/16 21:49:41;;;;;;;3.95;2.13;;;;;;;2.92;65.15;97908.13;10135875;29;20048;-79
2021/03/16 21:55:19;;;;;;;4.28;2.47;;;;;;;2.91;65.48;97923.94;10116584;29;20500;-80
2021/03/16 22:00:59;;;;;;;3.95;2.80;;;;;;;2.88;65.73;97911.94;10125055;29;20095;-79
2021/03/16 22:06:37;;;;;;;4.53;3.10;;;;;;;2.88;65.77;97911.94;10155684;29;20040;-78
2021/03/16 22:12:19;;;;;;;6.18;3.72;;;;;;;2.95;66.18;97918.81;10168894;29;20115;-78
2021/03/16 22:17:58;;;;;;;10.90;5.10;;;;;;;3.10;66.08;97921.72;10171247;29;20052;-79
2021/03/16 22:23:36;;;;;;;8.93;5.53;;;;;;;3.10;66.38;97918.94;10171069;29;20048;-78
2021/03/16 22:29:16;;;;;;;10.30;6.40;;;;;;;2.97;67.70;97905.22;10170867;29;20492;-79
2021/03/16 22:34:55;;;;;;;8.80;4.63;;;;;;;2.68;67.92;97909.19;10170611;29;20111;-78
2021/03/16 22:40:33;;;;;;;6.38;4.53;;;;;;;2.63;67.42;97896.31;10170772;29;20055;-79
2021/03/16 22:46:14;;;;;;;8.98;5.45;;;;;;;2.64;68.42;97889.50;10170509;29;20040;-78
2021/03/16 22:51:52;;;;;;;6.15;4.68;;;;;;;2.61;68.61;97893.34;10170331;29;20400;-79
2021/03/16 22:57:30;;;;;;;6.28;4.22;;;;;;;2.59;68.29;97880.81;10169784;29;20051;-79
2021/03/16 23:03:09;;;;;;;7.07;4.95;;;;;;;2.70;68.26;97879.06;10170141;29;20128;-79
2021/03/16 23:08:48;;;;;;;5.28;4.13;;;;;;;2.69;68.59;97880.34;10168523;29;20048;-78
2021/03/16 23:14:27;;;;;;;5.45;4.25;;;;;;;2.76;68.49;97879.69;10180165;29;20056;-79
2021/03/16 23:20:11;;;;;;;5.78;4.25;;;;;;;2.76;68.47;97880.44;10169209;29;20403;-79
2021/03/16 23:25:54;;;;;;;5.65;3.92;;;;;;;2.76;69.42;97885.19;10158834;29;20048;-79
2021/03/16 23:31:32;;;;;;;5.82;4.65;;;;;;;2.70;70.33;97877.09;10179400;29;20044;-79
2021/03/16 23:37:11;;;;;;;8.50;4.65;;;;;;;2.65;70.29;97877.22;10168209;29;20500;-78
2021/03/16 23:42:49;;;;;;;7.82;5.28;;;;;;;2.63;70.22;97866.72;10157869;29;20063;-79
2021/03/16 23:48:31;;;;;;;8.07;4.82;;;;;;;2.61;69.97;97871.31;10156684;29;20056;-79
2021/03/16 23:54:10;;;;;;;7.70;4.70;;;;;;;2.63;69.78;97866.00;10142897;29;20052;-78
2021/03/16 23:59:49;;;;;;;6.35;4.25;;;;;;;2.59;70.37;97866.31;10166273;29;20054;-79
